createdAt,value
2022-11-22T00:00:35.474Z,101010.84
2022-11-22T00:03:40.182Z,101008.28
2022-11-22T00:06:44.846Z,101019.25
2022-11-22T00:09:50.869Z,101030.22
2022-11-22T00:12:55.962Z,101020.09
2022-11-22T00:16:01.583Z,101020.13
2022-11-22T00:19:06.359Z,101013.38
2022-11-22T00:22:13.188Z,101020.94
2022-11-22T00:25:19.539Z,101020.97
2022-11-22T00:28:24.182Z,101031.88
2022-11-22T00:31:28.940Z,101028.53
2022-11-22T00:34:33.829Z,101036.06
2022-11-22T00:37:38.807Z,101025.16
2022-11-22T00:40:45.079Z,101031.03
2022-11-22T00:43:49.776Z,101031.09
2022-11-22T00:46:54.977Z,101036.91
2022-11-22T00:50:00.058Z,101042.78
2022-11-22T00:53:05.309Z,101034.38
2022-11-22T00:56:13.595Z,101033.53
2022-11-22T00:59:18.278Z,101031.84
2022-11-22T01:02:23.181Z,101030.19
2022-11-22T01:05:27.789Z,101024.31
2022-11-22T01:08:32.572Z,101021.72
2022-11-22T01:11:38.556Z,101026.78
2022-11-22T01:14:43.649Z,101020.91
2022-11-22T01:17:48.260Z,101031.84
2022-11-22T01:20:53.040Z,101029.34
2022-11-22T01:23:57.782Z,101033.53
2022-11-22T01:27:04.178Z,101039.44
2022-11-22T01:30:10.212Z,101042.81
2022-11-22T01:33:14.914Z,101042.00
2022-11-22T01:36:19.589Z,101044.53
2022-11-22T01:39:24.645Z,101044.53
2022-11-22T01:42:45.325Z,101044.53
2022-11-22T01:45:53.345Z,101050.44
2022-11-22T01:49:01.437Z,101042.88
2022-11-22T01:52:10.233Z,101040.34
2022-11-22T01:55:15.373Z,101052.94
2022-11-22T01:58:21.856Z,101044.53
2022-11-22T02:01:26.589Z,101051.28
2022-11-22T02:04:32.528Z,101055.53
2022-11-22T02:07:41.629Z,101063.13
2022-11-22T02:10:49.352Z,101058.06
2022-11-22T02:13:56.273Z,101067.34
2022-11-22T02:17:01.009Z,101065.63
2022-11-22T02:20:07.188Z,101069.03
2022-11-22T02:23:20.236Z,101068.97
2022-11-22T02:26:29.535Z,101063.94
2022-11-22T02:29:34.446Z,101066.44
2022-11-22T02:32:39.170Z,101065.66
2022-11-22T02:35:44.126Z,101064.81
2022-11-22T02:38:49.671Z,101071.56
2022-11-22T02:41:56.783Z,101068.16
2022-11-22T02:45:01.568Z,101065.66
2022-11-22T02:48:08.747Z,101063.97
2022-11-22T02:51:17.263Z,101069.03
2022-11-22T02:54:22.071Z,101083.34
2022-11-22T02:57:28.273Z,101073.22
2022-11-22T03:00:33.181Z,101070.72
2022-11-22T03:03:38.175Z,101074.06
2022-11-22T03:06:43.081Z,101071.56
2022-11-22T03:09:47.681Z,101068.16
2022-11-22T03:12:53.637Z,101074.06
2022-11-22T03:15:58.252Z,101065.66
2022-11-22T03:19:03.461Z,101067.38
2022-11-22T03:22:08.106Z,101073.22
2022-11-22T03:25:12.767Z,101076.59
2022-11-22T03:28:19.357Z,101082.50
2022-11-22T03:31:24.148Z,101070.72
2022-11-22T03:34:28.862Z,101074.03
2022-11-22T03:37:33.505Z,101066.47
2022-11-22T03:40:38.157Z,101070.69
2022-11-22T03:43:44.388Z,101074.91
2022-11-22T03:46:49.216Z,101072.34
2022-11-22T03:49:53.879Z,101065.59
2022-11-22T03:52:58.555Z,101066.44
2022-11-22T03:56:03.646Z,101079.06
2022-11-22T03:59:09.660Z,101079.06
2022-11-22T04:02:14.381Z,101075.72
2022-11-22T04:05:19.221Z,101079.94
2022-11-22T04:08:24.508Z,101079.97
2022-11-22T04:11:29.186Z,101090.06
2022-11-22T04:15:03.998Z,101082.50
2022-11-22T04:18:11.545Z,101081.66
2022-11-22T04:21:30.140Z,101093.44
2022-11-22T04:24:52.285Z,101088.38
2022-11-22T04:27:57.206Z,101090.00
2022-11-22T04:31:20.747Z,101093.34
2022-11-22T04:34:25.629Z,101097.56
2022-11-22T04:37:30.306Z,101108.50
2022-11-22T04:40:35.184Z,101112.72
2022-11-22T04:43:57.465Z,101107.66
2022-11-22T04:47:03.594Z,101111.03
2022-11-22T04:50:24.273Z,101118.63
2022-11-22T04:53:29.849Z,101123.66
2022-11-22T04:56:34.541Z,101127.03
2022-11-22T04:59:39.558Z,101121.97
2022-11-22T05:02:45.577Z,101111.88
2022-11-22T05:05:50.186Z,101115.28
2022-11-22T05:08:54.794Z,101116.09
2022-11-22T05:11:59.521Z,101106.00
2022-11-22T05:15:04.352Z,101111.09
2022-11-22T05:18:12.584Z,101123.72
2022-11-22T05:21:17.218Z,101126.22
2022-11-22T05:24:21.957Z,101126.25
2022-11-22T05:27:26.601Z,101138.03
2022-11-22T05:30:31.258Z,101138.06
2022-11-22T05:33:39.997Z,101137.19
2022-11-22T05:36:44.928Z,101137.22
2022-11-22T05:39:49.594Z,101134.69
2022-11-22T05:42:54.258Z,101140.56
2022-11-22T05:46:06.320Z,101146.53
2022-11-22T05:49:13.040Z,101140.63
2022-11-22T05:52:17.871Z,101145.72
2022-11-22T05:55:22.549Z,101149.84
2022-11-22T05:58:27.189Z,101139.78
2022-11-22T06:01:32.241Z,101152.47
2022-11-22T06:04:38.246Z,101155.81
2022-11-22T06:07:43.095Z,101163.34
2022-11-22T06:10:47.942Z,101163.38
2022-11-22T06:13:55.395Z,101156.63
2022-11-22T06:17:00.036Z,101164.25
2022-11-22T06:20:07.248Z,101172.69
2022-11-22T06:23:12.431Z,101165.09
2022-11-22T06:26:19.770Z,101176.91
2022-11-22T06:29:24.452Z,101164.25
2022-11-22T06:32:29.083Z,101171.81
2022-11-22T06:35:35.207Z,101176.00
2022-11-22T06:38:41.185Z,101181.91
2022-11-22T06:41:45.810Z,101180.16
2022-11-22T06:44:50.469Z,101191.16
2022-11-22T06:47:55.244Z,101193.69
2022-11-22T06:51:01.999Z,101208.88
2022-11-22T06:54:07.046Z,101203.81
2022-11-22T06:57:15.601Z,101192.06
2022-11-22T07:00:20.624Z,101186.16
2022-11-22T07:03:25.646Z,101191.22
2022-11-22T07:06:34.470Z,101198.00
2022-11-22T07:09:39.509Z,101206.38
2022-11-22T07:12:44.154Z,101213.97
2022-11-22T07:15:57.098Z,101212.31
2022-11-22T07:19:02.363Z,101207.28
2022-11-22T07:22:08.389Z,101207.25
2022-11-22T07:25:13.134Z,101218.22
2022-11-22T07:28:18.225Z,101217.38
2022-11-22T07:31:23.136Z,101224.94
2022-11-22T07:34:27.797Z,101226.69
2022-11-22T07:37:34.351Z,101219.09
2022-11-22T07:40:39.085Z,101225.00
2022-11-22T07:43:44.244Z,101226.66
2022-11-22T07:46:49.873Z,101231.75
2022-11-22T07:49:54.677Z,101242.75
2022-11-22T07:53:01.899Z,101238.53
2022-11-22T07:56:08.004Z,101247.81
2022-11-22T07:59:14.814Z,101247.81
2022-11-22T08:02:19.577Z,101254.56
2022-11-22T08:05:24.706Z,101261.28
2022-11-22T08:08:31.097Z,101253.75
2022-11-22T08:11:37.105Z,101262.19
2022-11-22T08:14:41.829Z,101254.66
2022-11-22T08:17:47.137Z,101263.09
2022-11-22T08:20:51.805Z,101263.94
2022-11-22T08:24:00.658Z,101263.09
2022-11-22T08:27:05.540Z,101271.47
2022-11-22T08:30:11.567Z,101274.03
2022-11-22T08:33:16.204Z,101277.38
2022-11-22T08:36:20.945Z,101272.31
2022-11-22T08:39:27.711Z,101275.72
2022-11-22T08:42:33.065Z,101272.34
2022-11-22T08:45:39.212Z,101277.41
2022-11-22T08:48:43.917Z,101274.88
2022-11-22T08:51:48.649Z,101277.41
2022-11-22T08:54:54.762Z,101285.00
2022-11-22T08:58:00.580Z,101290.09
2022-11-22T09:01:07.076Z,101296.03
2022-11-22T09:04:13.819Z,101291.78
2022-11-22T09:10:44.660Z,101303.63
2022-11-22T09:13:49.665Z,101309.50
2022-11-22T09:16:54.276Z,101322.16
2022-11-22T09:19:59.302Z,101323.00
2022-11-22T09:23:04.539Z,101318.81
2022-11-22T09:26:13.493Z,101316.28
2022-11-22T09:29:18.120Z,101331.38
2022-11-22T09:32:22.877Z,101322.97
2022-11-22T09:35:27.589Z,101320.47
2022-11-22T09:38:32.918Z,101314.59
2022-11-22T09:42:08.341Z,101317.94
2022-11-22T09:45:48.149Z,101325.59
2022-11-22T09:49:27.599Z,101338.25
2022-11-22T09:52:35.054Z,101330.69
2022-11-22T09:55:42.921Z,101334.91
2022-11-22T09:58:53.326Z,101334.88
2022-11-22T10:02:17.708Z,101340.81
2022-11-22T10:05:28.704Z,101349.22
2022-11-22T10:08:41.241Z,101339.97
2022-11-22T10:11:49.557Z,101344.13
2022-11-22T10:15:04.801Z,101351.63
2022-11-22T10:18:19.384Z,101355.91
2022-11-22T10:21:24.217Z,101360.94
2022-11-22T10:24:30.751Z,101352.53
2022-11-22T10:27:35.384Z,101361.81
2022-11-22T10:30:49.741Z,101357.56
2022-11-22T10:34:01.957Z,101368.53
2022-11-22T10:37:15.110Z,101363.50
2022-11-22T10:40:27.553Z,101366.06
2022-11-22T10:43:41.973Z,101363.59
2022-11-22T10:46:59.031Z,101351.75
2022-11-22T10:50:10.320Z,101352.56
2022-11-22T10:53:29.001Z,101349.25
2022-11-22T10:56:38.866Z,101349.28
2022-11-22T10:59:57.096Z,101347.56
2022-11-22T11:03:25.122Z,101360.28
2022-11-22T11:06:57.002Z,101354.38
2022-11-22T11:10:13.694Z,101357.75
2022-11-22T11:13:26.246Z,101358.59
2022-11-22T11:16:34.237Z,101364.56
2022-11-22T11:19:41.250Z,101366.22
2022-11-22T11:26:24.492Z,101369.59
2022-11-22T11:29:46.425Z,101379.69
2022-11-22T11:32:56.713Z,101367.81
2022-11-22T11:36:08.045Z,101368.72
2022-11-22T11:39:22.020Z,101369.53
2022-11-22T11:42:30.246Z,101382.22
2022-11-22T11:45:34.947Z,101374.63
2022-11-22T11:48:41.280Z,101375.44
2022-11-22T11:51:49.300Z,101377.16
2022-11-22T11:54:57.740Z,101385.56
2022-11-22T11:58:04.581Z,101386.34
2022-11-22T12:01:12.851Z,101386.44
2022-11-22T12:04:23.663Z,101394.91
2022-11-22T12:07:41.474Z,101390.53
2022-11-22T12:10:51.197Z,101394.72
2022-11-22T12:17:28.716Z,101390.59
2022-11-22T12:20:42.857Z,101380.53
2022-11-22T12:24:08.185Z,101386.44
2022-11-22T12:27:21.083Z,101389.75
2022-11-22T12:30:25.768Z,101393.16
2022-11-22T12:33:34.954Z,101383.03
2022-11-22T12:36:45.673Z,101383.91
2022-11-22T12:39:55.536Z,101379.66
2022-11-22T12:43:02.071Z,101381.38
2022-11-22T12:46:11.323Z,101384.75
2022-11-22T12:49:32.244Z,101379.72
2022-11-22T12:52:43.589Z,101373.81
2022-11-22T12:55:58.169Z,101373.84
2022-11-22T12:59:08.247Z,101374.72
2022-11-22T13:02:21.199Z,101367.13
2022-11-22T13:05:28.738Z,101374.72
2022-11-22T13:08:39.617Z,101370.47
2022-11-22T13:11:51.068Z,101378.88
2022-11-22T13:14:56.820Z,101371.25
2022-11-22T13:18:02.109Z,101377.19
2022-11-22T13:21:11.658Z,101388.16
2022-11-22T13:24:31.685Z,101365.34
2022-11-22T13:27:41.570Z,101359.44
2022-11-22T13:31:09.064Z,101376.22
2022-11-22T13:34:26.639Z,101366.97
2022-11-22T13:37:33.685Z,101379.53
2022-11-22T13:40:43.546Z,101387.97
2022-11-22T13:43:56.900Z,101384.63
2022-11-22T13:47:03.448Z,101393.84
2022-11-22T13:51:00.327Z,101379.41
2022-11-22T13:55:00.518Z,101382.00
2022-11-22T13:58:56.450Z,101382.75
2022-11-22T14:02:10.385Z,101374.34
2022-11-22T14:05:20.230Z,101378.56
2022-11-22T14:08:34.551Z,101397.09
2022-11-22T14:11:49.957Z,101392.06
2022-11-22T14:15:25.812Z,101386.94
2022-11-22T14:19:12.402Z,101391.19
2022-11-22T14:22:26.232Z,101407.97
2022-11-22T14:25:51.773Z,101405.41
2022-11-22T14:29:58.003Z,101409.56
2022-11-22T14:33:05.949Z,101412.09
2022-11-22T14:36:17.694Z,101416.22
2022-11-22T14:40:18.029Z,101421.25
2022-11-22T14:43:30.284Z,101430.47
2022-11-22T14:46:55.768Z,101426.34
2022-11-22T14:50:02.601Z,101436.44
2022-11-22T14:53:20.221Z,101433.09
2022-11-22T14:56:28.641Z,101446.53
2022-11-22T15:00:17.897Z,101443.19
2022-11-22T15:09:11.061Z,101423.81
2022-11-22T15:09:27.100Z,101431.47
2022-11-22T15:12:10.116Z,101427.25
2022-11-22T15:57:31.947Z,101431.47
2022-11-22T16:00:38.141Z,101439.91
2022-11-22T16:03:43.909Z,101444.13
2022-11-22T16:06:49.049Z,101449.97
2022-11-22T16:09:53.732Z,101449.09
2022-11-22T16:12:58.682Z,101453.28
2022-11-22T16:16:21.502Z,101460.88
2022-11-22T16:19:26.559Z,101462.59
2022-11-22T16:22:32.655Z,101464.25
2022-11-22T16:25:40.000Z,101475.16
2022-11-22T16:28:45.141Z,101475.25
2022-11-22T16:31:51.161Z,101482.91
2022-11-22T16:35:21.772Z,101476.06
2022-11-22T16:38:20.801Z,101480.31
2022-11-22T16:41:27.480Z,101472.75
2022-11-22T16:44:32.165Z,101475.16
2022-11-22T16:47:38.299Z,101487.88
2022-11-22T16:50:43.299Z,101486.16
2022-11-22T16:53:49.956Z,101476.06
2022-11-22T16:56:54.592Z,101467.56
2022-11-22T16:59:59.470Z,101457.50
2022-11-22T17:03:05.712Z,101463.41
2022-11-22T17:06:16.204Z,101471.81
2022-11-22T17:09:21.056Z,101479.47
2022-11-22T17:12:33.436Z,101476.03
2022-11-22T17:15:39.612Z,101462.59
2022-11-22T17:18:46.220Z,101485.38
2022-11-22T17:21:50.976Z,101476.91
2022-11-22T17:24:56.125Z,101481.88
2022-11-22T17:28:00.780Z,101480.25
2022-11-22T17:31:09.992Z,101479.44
2022-11-22T17:34:16.124Z,101480.28
2022-11-22T17:37:20.887Z,101492.09
2022-11-22T17:40:25.547Z,101493.72
2022-11-22T17:43:30.177Z,101495.44
2022-11-22T17:46:38.231Z,101501.31
2022-11-22T17:49:44.386Z,101500.56
2022-11-22T17:52:49.109Z,101502.25
2022-11-22T17:56:10.139Z,101501.44
2022-11-22T17:59:15.367Z,101495.59
2022-11-22T18:02:20.566Z,101489.50
2022-11-22T18:05:26.647Z,101502.22
2022-11-22T18:08:31.780Z,101498.03
2022-11-22T18:11:37.340Z,101512.34
2022-11-22T18:14:42.081Z,101498.84
2022-11-22T18:17:46.888Z,101500.56
2022-11-22T18:20:55.234Z,101495.59
2022-11-22T18:24:00.897Z,101503.16
2022-11-22T18:27:05.829Z,101485.41
2022-11-22T18:30:13.117Z,101502.34
2022-11-22T18:33:17.857Z,101496.44
2022-11-22T18:36:54.066Z,101494.72
2022-11-22T18:39:51.315Z,101490.53
2022-11-22T18:42:57.884Z,101488.81
2022-11-22T18:46:02.885Z,101492.19
2022-11-22T18:49:07.837Z,101511.59
2022-11-22T18:52:17.775Z,101503.88
2022-11-22T18:55:22.872Z,101509.06
2022-11-22T18:58:30.834Z,101500.63
2022-11-22T19:01:38.399Z,101504.03
2022-11-22T19:04:43.502Z,101496.41
2022-11-22T19:07:51.867Z,101508.25
2022-11-22T19:10:59.724Z,101493.91
2022-11-22T19:14:04.665Z,101493.09
2022-11-22T19:17:10.371Z,101492.28
2022-11-22T19:20:39.335Z,101489.72
2022-11-22T19:23:41.904Z,101494.81
2022-11-22T19:26:46.774Z,101481.34
2022-11-22T19:29:51.790Z,101483.06
2022-11-22T19:32:57.199Z,101490.63
2022-11-22T19:36:04.878Z,101487.25
2022-11-22T19:39:14.600Z,101474.66
2022-11-22T19:42:20.708Z,101480.56
2022-11-22T19:45:25.760Z,101473.78
2022-11-22T19:48:30.825Z,101478.03
2022-11-22T19:51:36.245Z,101470.47
2022-11-22T19:54:42.650Z,101479.72
2022-11-22T19:57:47.424Z,101475.53
2022-11-22T20:00:52.081Z,101478.91
2022-11-22T20:03:59.053Z,101488.19
2022-11-22T20:07:04.762Z,101486.47
2022-11-22T20:10:11.551Z,101478.03
2022-11-22T20:13:16.161Z,101480.53
2022-11-22T20:16:25.732Z,101478.81
2022-11-22T20:19:34.267Z,101476.31
2022-11-22T20:22:39.673Z,101485.59
2022-11-22T20:25:45.698Z,101486.44
2022-11-22T20:28:56.974Z,101481.38
2022-11-22T20:32:02.048Z,101486.44
2022-11-22T20:35:08.183Z,101493.25
2022-11-22T20:38:15.590Z,101494.09
2022-11-22T20:41:24.447Z,101501.75
2022-11-22T20:44:29.390Z,101508.44
2022-11-22T20:47:34.176Z,101506.72
2022-11-22T20:50:38.820Z,101506.78
2022-11-22T20:53:44.353Z,101518.59
2022-11-22T20:56:50.736Z,101524.53
2022-11-22T20:59:55.365Z,101528.75
2022-11-22T21:03:00.020Z,101529.56
2022-11-22T21:06:05.725Z,101528.69
2022-11-22T21:09:11.097Z,101534.63
2022-11-22T21:12:17.153Z,101528.72
2022-11-22T21:15:22.286Z,101532.94
2022-11-22T21:18:30.469Z,101544.72
2022-11-22T21:21:37.190Z,101545.53
2022-11-22T21:24:41.970Z,101530.31
2022-11-22T21:27:48.634Z,101521.91
2022-11-22T21:30:58.170Z,101531.13
2022-11-22T21:34:03.105Z,101531.16
2022-11-22T21:37:07.810Z,101518.47
2022-11-22T21:40:15.111Z,101521.78
2022-11-22T21:43:21.756Z,101524.31
2022-11-22T21:46:27.068Z,101526.03
2022-11-22T21:49:31.646Z,101534.47
2022-11-22T21:52:36.300Z,101531.91
2022-11-22T21:55:50.721Z,101527.75
2022-11-22T21:58:56.955Z,101539.56
2022-11-22T22:02:01.616Z,101538.69
2022-11-22T22:05:07.076Z,101536.16
2022-11-22T22:08:13.464Z,101547.97
2022-11-22T22:11:18.712Z,101562.28
2022-11-22T22:14:24.737Z,101558.13
2022-11-22T22:17:29.417Z,101561.50
2022-11-22T22:20:34.159Z,101560.66
2022-11-22T22:23:40.776Z,101560.63
2022-11-22T22:26:45.587Z,101572.41
2022-11-22T22:29:51.619Z,101572.41
2022-11-22T22:32:56.372Z,101571.56
2022-11-22T22:36:01.554Z,101577.38
2022-11-22T22:39:06.201Z,101564.72
2022-11-22T22:42:10.999Z,101578.16
2022-11-22T22:45:18.391Z,101586.59
2022-11-22T22:48:23.445Z,101586.53
2022-11-22T22:51:32.663Z,101588.25
2022-11-22T22:54:37.977Z,101578.88
2022-11-22T22:57:42.581Z,101596.66
2022-11-22T23:00:49.095Z,101591.53
2022-11-22T23:03:57.300Z,101599.16
2022-11-22T23:07:01.989Z,101592.28
2022-11-22T23:10:08.396Z,101602.41
2022-11-22T23:13:13.889Z,101603.28
2022-11-22T23:16:20.139Z,101600.78
2022-11-22T23:19:24.859Z,101607.50
2022-11-22T23:22:29.597Z,101618.53
2022-11-22T23:25:34.605Z,101615.09
2022-11-22T23:28:39.819Z,101613.41
2022-11-22T23:31:46.117Z,101610.84
2022-11-22T23:34:50.948Z,101606.66
2022-11-22T23:37:56.007Z,101611.50
2022-11-22T23:41:01.193Z,101614.00
2022-11-22T23:44:06.368Z,101613.91
2022-11-22T23:47:12.503Z,101608.78
2022-11-22T23:50:17.537Z,101609.78
2022-11-22T23:53:22.518Z,101599.50
2022-11-22T23:56:28.154Z,101598.59
2022-11-22T23:59:33.036Z,101602.75
